Time;durP1;ratioP1;P1;durP2;ratioP2;P2;SDS_P1;SDS_P2;PMS_P1;PMS_P2;Temp;Humidity;BMP_temperature;BMP_pressure;BME280_temperature;BME280_humidity;BME280_pressure;Samples;Min_cycle;Max_cycle;Signal;HPM_P1;HPM_P2
2021/09/06 00:01:13;;;;;;;16.20;8.10;;;;;;;24.20;44.53;99985.19;5037446;28;20458;-64
2021/09/06 00:03:40;;;;;;;11.32;6.22;;;;;;;24.18;44.76;100022.66;5036997;28;20057;-64
2021/09/06 00:06:07;;;;;;;16.27;7.72;;;;;;;24.17;45.13;100018.19;5041201;28;20065;-64
2021/09/06 00:08:34;;;;;;;12.32;6.38;;;;;;;24.17;44.82;100012.47;5044479;28;20512;-62
2021/09/06 00:11:06;;;;;;;15.88;6.57;;;;;;;24.03;45.25;99990.25;5040591;28;20051;-67
2021/09/06 00:13:34;;;;;;;15.07;6.20;;;;;;;23.91;45.04;99979.09;5036036;28;20136;-68
2021/09/06 00:16:02;;;;;;;9.65;5.07;;;;;;;24.11;45.23;99996.91;5039022;28;20132;-63
2021/09/06 00:18:29;;;;;;;9.43;4.57;;;;;;;23.83;44.75;99940.28;5040239;28;20041;-66
2021/09/06 00:20:57;;;;;;;11.27;5.00;;;;;;;24.11;44.95;99985.50;5042310;28;20049;-68
2021/09/06 00:23:27;;;;;;;8.40;4.65;;;;;;;24.08;44.91;99986.25;5050136;28;20044;-72
2021/09/06 00:25:54;;;;;;;11.00;4.90;;;;;;;24.05;44.75;99992.72;5040862;28;20080;-72
2021/09/06 00:28:21;;;;;;;10.40;4.57;;;;;;;24.02;45.29;99993.50;5033036;28;20125;-66
2021/09/06 00:30:48;;;;;;;11.65;4.13;;;;;;;23.95;44.86;99982.00;5046368;28;20044;-67
2021/09/06 00:33:15;;;;;;;10.30;4.18;;;;;;;23.89;44.95;99973.75;5045153;28;20059;-66
2021/09/06 00:35:42;;;;;;;11.60;4.03;;;;;;;24.02;45.15;99996.34;5032866;28;20056;-71
2021/09/06 00:38:09;;;;;;;9.50;4.10;;;;;;;24.00;44.97;100007.31;5031911;28;20095;-70
2021/09/06 00:40:36;;;;;;;10.35;4.85;;;;;;;23.93;44.63;100030.03;5042639;28;20515;-70
2021/09/06 00:43:03;;;;;;;9.95;4.82;;;;;;;23.93;45.50;100032.88;5042539;28;20064;-69
2021/09/06 00:45:30;;;;;;;6.28;3.30;;;;;;;23.71;46.41;100075.31;5033539;28;20141;-69
2021/09/06 00:47:57;;;;;;;7.57;4.07;;;;;;;23.42;47.99;100080.47;5038995;28;20138;-69
2021/09/06 00:50:24;;;;;;;8.88;4.35;;;;;;;23.16;48.84;100069.00;5034005;28;20095;-69
2021/09/06 00:52:51;;;;;;;10.57;3.83;;;;;;;23.15;48.76;100018.94;5044236;28;20627;-70
2021/09/06 00:55:18;;;;;;;9.02;5.40;;;;;;;23.38;48.21;99962.78;5049525;28;20099;-70
2021/09/06 00:57:45;;;;;;;7.65;4.35;;;;;;;23.40;48.26;99926.16;5041713;28;20069;-74
2021/09/06 01:00:17;;;;;;;6.95;4.20;;;;;;;23.64;47.70;99944.03;5041662;28;20041;-73
2021/09/06 01:02:44;;;;;;;8.07;3.60;;;;;;;23.58;48.02;99999.72;5037807;28;20494;-69
2021/09/06 01:05:12;;;;;;;10.45;4.38;;;;;;;23.49;48.67;99973.53;5043347;28;20080;-68
2021/09/06 01:07:40;;;;;;;11.80;4.28;;;;;;;23.47;48.36;99850.53;5040965;28;20123;-69
2021/09/06 01:10:12;;;;;;;9.07;4.10;;;;;;;23.65;48.53;99837.34;5042937;28;20088;-77
2021/09/06 01:12:41;;;;;;;5.35;3.17;;;;;;;23.71;48.52;99818.75;5035052;28;20076;-73
2021/09/06 01:15:10;;;;;;;7.32;3.72;;;;;;;23.80;48.34;99827.81;5032971;28;20085;-74
2021/09/06 01:17:37;;;;;;;12.82;4.13;;;;;;;23.80;48.17;99827.81;5036748;28;20128;-79
2021/09/06 01:20:06;;;;;;;6.63;3.90;;;;;;;23.84;48.13;99842.13;5046855;28;20120;-71
2021/09/06 01:22:33;;;;;;;6.43;3.57;;;;;;;23.87;48.23;99841.34;5042125;28;20120;-78
2021/09/06 01:25:00;;;;;;;12.32;4.90;;;;;;;23.82;48.49;99821.72;5051521;28;20298;-64
2021/09/06 01:27:28;;;;;;;5.05;3.47;;;;;;;23.87;48.04;99810.81;5052660;28;20049;-66
2021/09/06 01:29:55;;;;;;;7.25;3.15;;;;;;;23.91;47.47;99813.69;5052952;28;20405;-69
2021/09/06 01:32:22;;;;;;;7.63;3.42;;;;;;;23.95;47.61;99837.38;5040860;28;20124;-70
2021/09/06 01:34:50;;;;;;;5.57;3.03;;;;;;;23.98;46.79;99833.75;5052604;28;20128;-70
2021/09/06 01:37:17;;;;;;;11.98;4.72;;;;;;;23.99;47.11;99857.38;5050253;28;20208;-68
2021/09/06 01:39:44;;;;;;;6.65;3.03;;;;;;;23.97;47.10;99860.63;5052255;28;20128;-67
2021/09/06 01:42:11;;;;;;;5.50;3.35;;;;;;;23.82;47.09;99842.50;5047480;28;20083;-67
2021/09/06 01:44:38;;;;;;;7.30;3.58;;;;;;;23.85;47.14;99852.31;5052403;28;20568;-66
2021/09/06 01:47:04;;;;;;;9.02;3.40;;;;;;;23.75;47.88;99887.19;5039580;28;20183;-67
2021/09/06 01:49:31;;;;;;;10.57;3.65;;;;;;;23.40;48.30;99909.06;5041299;28;20545;-67
2021/09/06 01:51:58;;;;;;;8.00;3.78;;;;;;;23.32;49.13;99924.41;5050614;28;20099;-67
2021/09/06 01:54:25;;;;;;;7.22;3.80;;;;;;;23.28;49.00;99976.81;5047164;28;20528;-66
2021/09/06 01:56:52;;;;;;;6.47;4.05;;;;;;;23.26;49.17;99962.16;5052175;28;20133;-67
2021/09/06 01:59:19;;;;;;;10.07;4.35;;;;;;;23.23;48.97;99888.84;5032550;28;20091;-67
2021/09/06 02:01:45;;;;;;;8.52;3.75;;;;;;;23.25;49.58;99847.38;5035441;28;20077;-67
2021/09/06 02:04:13;;;;;;;8.40;4.25;;;;;;;23.35;49.18;99781.19;5046423;28;20481;-67
2021/09/06 02:06:40;;;;;;;6.63;3.17;;;;;;;23.49;49.28;99774.06;5036292;28;20056;-77
2021/09/06 02:09:07;;;;;;;6.72;3.40;;;;;;;23.62;49.15;99796.22;5036656;28;20123;-78
2021/09/06 02:11:34;;;;;;;9.77;3.65;;;;;;;23.50;49.20;99793.59;5045191;28;20157;-78
2021/09/06 02:14:01;;;;;;;10.10;4.03;;;;;;;23.64;48.75;99804.38;5032474;28;20085;-70
2021/09/06 02:16:28;;;;;;;7.60;3.60;;;;;;;23.56;48.81;99800.59;5034544;28;20458;-75
2021/09/06 02:18:55;;;;;;;7.00;3.38;;;;;;;23.61;48.93;99819.38;5042217;28;20041;-67
2021/09/06 02:21:22;;;;;;;8.23;3.40;;;;;;;23.45;48.74;99830.16;5038893;28;20087;-67
2021/09/06 02:23:48;;;;;;;10.20;3.35;;;;;;;23.20;49.35;99824.91;5046525;28;20075;-67
2021/09/06 02:26:15;;;;;;;7.32;2.90;;;;;;;23.13;48.76;99819.09;5057210;28;20091;-67
2021/09/06 02:28:42;;;;;;;5.82;2.45;;;;;;;23.19;48.62;99817.56;5043969;28;20493;-70
2021/09/06 02:31:09;;;;;;;7.50;3.85;;;;;;;23.33;48.47;99826.34;5042278;28;20072;-72
2021/09/06 02:33:38;;;;;;;5.65;3.35;;;;;;;23.39;48.29;99767.81;5044128;28;20077;-67
2021/09/06 02:36:05;;;;;;;5.80;3.33;;;;;;;23.59;48.01;99799.00;5037272;28;20132;-68
2021/09/06 02:38:31;;;;;;;6.65;3.10;;;;;;;23.42;48.88;99829.72;5039834;28;20128;-65
2021/09/06 02:40:58;;;;;;;7.45;3.58;;;;;;;23.29;49.47;99853.94;5039690;28;20469;-65
2021/09/06 02:43:25;;;;;;;10.75;3.42;;;;;;;23.21;49.68;99885.53;5046144;28;20084;-64
2021/09/06 02:45:52;;;;;;;6.45;3.55;;;;;;;23.08;49.59;99865.00;5037270;28;20125;-68
2021/09/06 02:48:19;;;;;;;11.30;3.88;;;;;;;23.21;49.84;99828.56;5040874;28;20069;-68
2021/09/06 02:50:45;;;;;;;7.53;3.25;;;;;;;23.32;49.29;99830.41;5037888;28;20053;-73
2021/09/06 02:53:12;;;;;;;8.93;3.22;;;;;;;23.40;49.33;99854.09;5038623;28;20080;-67
2021/09/06 02:55:39;;;;;;;9.02;3.50;;;;;;;23.35;49.85;99900.84;5037274;28;20133;-67
2021/09/06 02:58:06;;;;;;;8.00;3.80;;;;;;;23.34;49.82;99879.25;5038254;28;20095;-67
2021/09/06 03:00:33;;;;;;;5.32;3.45;;;;;;;23.34;49.89;99861.34;5036808;28;20133;-66
2021/09/06 03:03:00;;;;;;;5.95;3.45;;;;;;;23.21;50.23;99892.06;5048552;28;20137;-66
2021/09/06 03:05:27;;;;;;;7.88;3.40;;;;;;;23.02;50.70;99866.53;5039939;28;20095;-67
2021/09/06 03:07:54;;;;;;;7.13;3.50;;;;;;;23.05;50.93;99865.78;5050778;28;20132;-65
2021/09/06 03:10:21;;;;;;;9.02;3.60;;;;;;;23.04;50.50;99858.41;5053118;28;20128;-66
2021/09/06 03:12:49;;;;;;;10.50;4.38;;;;;;;22.86;51.01;99860.94;5037918;28;20533;-66
2021/09/06 03:15:16;;;;;;;9.75;4.72;;;;;;;22.78;51.38;99885.63;5039432;28;20255;-67
2021/09/06 03:17:42;;;;;;;9.45;3.95;;;;;;;22.73;51.54;99874.53;5045341;28;20124;-67
2021/09/06 03:20:10;;;;;;;10.55;3.55;;;;;;;22.41;51.26;99819.91;5037427;28;20158;-67
2021/09/06 03:22:36;;;;;;;8.40;4.00;;;;;;;22.65;51.54;99887.00;5036569;28;20080;-68
2021/09/06 03:25:04;;;;;;;5.68;2.88;;;;;;;22.33;51.58;99849.44;5036652;28;20076;-68
2021/09/06 03:27:31;;;;;;;5.95;3.08;;;;;;;22.59;51.79;99888.50;5057615;28;20114;-68
2021/09/06 03:29:58;;;;;;;10.82;3.67;;;;;;;22.45;51.58;99878.50;5056532;28;20076;-68
2021/09/06 03:32:25;;;;;;;8.00;3.05;;;;;;;22.32;52.29;99877.03;5034844;28;20137;-68
2021/09/06 03:34:52;;;;;;;5.97;3.28;;;;;;;22.47;51.61;99876.13;5036218;28;20049;-69
2021/09/06 03:37:18;;;;;;;10.02;3.85;;;;;;;22.58;51.44;99881.19;5034864;28;20088;-65
2021/09/06 03:39:47;;;;;;;4.97;2.88;;;;;;;22.54;51.58;99880.31;5043573;28;20075;-66
2021/09/06 03:42:14;;;;;;;5.78;3.60;;;;;;;22.45;52.10;99880.53;5053806;28;20076;-66
2021/09/06 03:44:40;;;;;;;8.23;3.28;;;;;;;22.41;52.08;99893.88;5044106;28;20145;-65
2021/09/06 03:47:07;;;;;;;7.18;3.28;;;;;;;22.30;52.32;99887.97;5045149;28;20606;-68
2021/09/06 03:49:34;;;;;;;6.30;2.70;;;;;;;22.20;52.65;99865.84;5037320;28;20045;-69
2021/09/06 03:52:01;;;;;;;5.13;3.10;;;;;;;22.20;52.38;99872.34;5042442;28;20088;-71
2021/09/06 03:54:28;;;;;;;5.00;3.25;;;;;;;22.07;52.70;99845.22;5054114;28;20080;-80
2021/09/06 03:56:55;;;;;;;11.07;4.38;;;;;;;22.24;52.45;99878.91;5046940;28;20045;-78
2021/09/06 03:59:22;;;;;;;5.13;3.20;;;;;;;22.24;52.61;99883.78;5046832;28;20141;-77
2021/09/06 04:01:50;;;;;;;6.82;3.15;;;;;;;22.20;52.59;99860.97;5041298;28;20072;-75
2021/09/06 04:04:17;;;;;;;6.85;3.33;;;;;;;22.21;52.50;99868.28;5040521;28;20048;-76
2021/09/06 04:06:44;;;;;;;8.80;3.30;;;;;;;22.18;52.60;99863.34;5047926;28;20104;-75
2021/09/06 04:09:11;;;;;;;8.00;3.15;;;;;;;22.16;52.94;99864.94;5049379;28;20446;-76
2021/09/06 04:11:38;;;;;;;8.13;3.72;;;;;;;22.11;52.89;99845.28;5034062;28;20045;-74
2021/09/06 04:14:05;;;;;;;3.63;2.50;;;;;;;22.18;52.62;99849.13;5040401;28;20127;-75
2021/09/06 04:16:32;;;;;;;6.43;3.50;;;;;;;22.27;52.45;99845.25;5042962;28;20140;-75
2021/09/06 04:18:58;;;;;;;9.00;3.63;;;;;;;22.16;52.41;99819.44;5035724;28;20049;-75
2021/09/06 04:21:25;;;;;;;8.00;3.25;;;;;;;22.29;52.46;99835.13;5048557;28;20133;-72
2021/09/06 04:23:52;;;;;;;5.65;3.30;;;;;;;22.27;52.74;99846.06;5041265;28;20066;-72
2021/09/06 04:26:19;;;;;;;7.35;3.70;;;;;;;22.27;52.36;99836.72;5045828;28;20136;-68
2021/09/06 04:28:46;;;;;;;6.25;3.70;;;;;;;22.29;52.38;99832.31;5041841;28;20068;-69
2021/09/06 04:31:12;;;;;;;7.72;3.63;;;;;;;22.22;52.04;99815.91;5040911;28;20131;-68
2021/09/06 04:33:39;;;;;;;8.32;3.33;;;;;;;22.32;51.86;99827.84;5051770;28;20052;-70
2021/09/06 04:36:06;;;;;;;7.95;3.97;;;;;;;22.09;52.18;99793.69;5033970;28;20151;-71
2021/09/06 04:38:33;;;;;;;7.20;2.97;;;;;;;22.25;52.42;99831.38;5033929;28;20136;-66
2021/09/06 04:41:00;;;;;;;5.85;2.65;;;;;;;22.16;52.30;99813.75;5033981;28;20124;-71
2021/09/06 04:43:26;;;;;;;6.80;3.95;;;;;;;22.23;52.23;99826.09;5045622;28;20091;-70
2021/09/06 04:45:53;;;;;;;6.10;3.42;;;;;;;22.22;52.37;99832.97;5036726;28;20723;-71
2021/09/06 04:48:20;;;;;;;4.93;3.13;;;;;;;22.21;52.36;99819.13;5053010;28;20128;-69
2021/09/06 04:50:47;;;;;;;7.10;4.07;;;;;;;22.23;52.47;99813.88;5039154;28;20081;-69
2021/09/06 04:53:14;;;;;;;11.38;3.88;;;;;;;22.22;52.54;99821.59;5033433;28;20074;-72
2021/09/06 04:55:41;;;;;;;9.35;4.15;;;;;;;22.25;52.14;99820.00;5041664;28;20095;-68
2021/09/06 04:58:07;;;;;;;6.65;3.42;;;;;;;22.30;51.89;99819.72;5033559;28;20525;-68
2021/09/06 05:00:34;;;;;;;6.55;3.97;;;;;;;22.36;51.64;99814.50;5037512;28;20068;-80
2021/09/06 05:03:01;;;;;;;7.25;3.47;;;;;;;22.31;51.94;99809.16;5034909;28;20489;-79
2021/09/06 05:05:28;;;;;;;6.22;3.47;;;;;;;22.39;51.88;99817.44;5036551;28;20041;-70
2021/09/06 05:07:55;;;;;;;5.93;3.63;;;;;;;22.39;51.96;99810.91;5041356;28;20076;-74
2021/09/06 05:10:22;;;;;;;5.18;3.30;;;;;;;22.35;51.79;99807.19;5050750;28;20551;-65
2021/09/06 05:12:49;;;;;;;7.63;3.20;;;;;;;22.36;51.81;99809.66;5035818;28;20077;-62
2021/09/06 05:15:16;;;;;;;6.82;3.53;;;;;;;22.37;51.67;99801.97;5033832;28;20081;-71
2021/09/06 05:17:42;;;;;;;12.48;3.38;;;;;;;22.37;51.60;99801.97;5042630;28;20532;-65
2021/09/06 05:20:10;;;;;;;5.55;3.42;;;;;;;22.47;51.44;99805.00;5040210;28;20468;-69
2021/09/06 05:22:36;;;;;;;8.48;3.58;;;;;;;22.49;51.54;99807.44;5039456;28;20139;-65
2021/09/06 05:25:04;;;;;;;7.55;3.33;;;;;;;22.34;51.43;99783.63;5052665;28;20556;-70
2021/09/06 05:27:31;;;;;;;5.28;3.28;;;;;;;22.36;51.97;99812.50;5038920;28;20425;-68
2021/09/06 05:29:58;;;;;;;4.35;2.85;;;;;;;22.20;52.32;99797.56;5045871;28;20049;-65
2021/09/06 05:32:25;;;;;;;8.65;3.17;;;;;;;22.08;52.83;99806.25;5051252;28;20491;-63
2021/09/06 05:34:52;;;;;;;7.22;3.95;;;;;;;21.99;53.05;99798.78;5032391;28;20111;-62
2021/09/06 05:37:18;;;;;;;5.90;2.65;;;;;;;21.99;53.13;99804.47;5030306;28;20128;-63
2021/09/06 05:39:45;;;;;;;3.55;2.13;;;;;;;22.01;53.20;99815.44;5036324;28;20461;-67
2021/09/06 05:42:12;;;;;;;4.93;3.00;;;;;;;21.99;52.96;99810.16;5040046;28;20465;-61
2021/09/06 05:44:39;;;;;;;6.07;2.72;;;;;;;21.99;53.05;99815.03;5032945;28;20084;-65
2021/09/06 05:47:06;;;;;;;5.15;2.70;;;;;;;22.05;52.77;99824.03;5031252;28;20077;-63
2021/09/06 05:49:34;;;;;;;10.35;3.65;;;;;;;22.10;52.90;99816.03;5030864;28;20132;-62
2021/09/06 05:52:01;;;;;;;7.95;2.83;;;;;;;22.14;52.93;99824.66;5034835;28;20480;-61
2021/09/06 05:54:28;;;;;;;7.88;3.97;;;;;;;22.14;52.38;99821.81;5033980;28;20045;-63
2021/09/06 05:56:55;;;;;;;4.40;2.35;;;;;;;22.13;52.89;99840.06;5033829;28;20073;-65
2021/09/06 05:59:22;;;;;;;4.47;2.85;;;;;;;21.97;52.83;99825.94;5031836;28;20132;-63
2021/09/06 06:01:48;;;;;;;6.65;3.28;;;;;;;22.04;53.16;99857.34;5039753;28;20049;-62
2021/09/06 06:04:16;;;;;;;5.45;3.33;;;;;;;21.91;53.43;99853.81;5033590;28;20085;-62
2021/09/06 06:06:43;;;;;;;9.40;3.40;;;;;;;21.83;53.20;99835.00;5031948;28;20124;-63
2021/09/06 06:09:10;;;;;;;7.70;3.35;;;;;;;22.04;52.87;99856.53;5032943;28;20128;-67
2021/09/06 06:11:38;;;;;;;7.93;2.80;;;;;;;22.20;52.74;99865.84;5036515;28;20702;-73
2021/09/06 06:14:05;;;;;;;12.80;3.58;;;;;;;22.23;52.36;99868.75;5031528;28;20517;-63
2021/09/06 06:16:32;;;;;;;6.78;3.30;;;;;;;22.22;52.71;99875.63;5032231;28;20068;-65
2021/09/06 06:19:00;;;;;;;4.93;3.20;;;;;;;22.20;52.96;99865.84;5049810;28;20053;-77
2021/09/06 06:21:27;;;;;;;6.50;3.00;;;;;;;22.08;53.01;99869.59;5039148;28;20067;-77
2021/09/06 06:23:55;;;;;;;8.70;3.85;;;;;;;22.01;53.41;99867.44;5034812;28;20136;-76
2021/09/06 06:26:22;;;;;;;5.70;2.60;;;;;;;21.89;53.62;99864.78;5040693;28;20083;-76
2021/09/06 06:28:49;;;;;;;6.50;3.30;;;;;;;21.98;53.61;99895.81;5033088;28;20549;-78
2021/09/06 06:31:16;;;;;;;4.85;3.03;;;;;;;21.96;53.61;99896.19;5047183;28;20083;-76
2021/09/06 06:33:43;;;;;;;6.32;3.13;;;;;;;22.05;53.53;99909.34;5032740;28;20087;-70
2021/09/06 06:36:11;;;;;;;9.07;3.47;;;;;;;22.03;53.44;99911.75;5036076;28;20056;-77
2021/09/06 06:38:37;;;;;;;5.00;3.17;;;;;;;22.06;53.33;99911.81;5037593;28;20456;-77
2021/09/06 06:41:04;;;;;;;5.10;2.90;;;;;;;22.02;53.51;99910.94;5039774;28;20072;-77
2021/09/06 06:43:31;;;;;;;7.35;3.55;;;;;;;22.08;53.56;99914.28;5040119;28;20064;-78
2021/09/06 06:45:58;;;;;;;6.85;3.50;;;;;;;22.30;53.18;99922.09;5042593;28;20132;-77
2021/09/06 06:48:25;;;;;;;6.38;3.42;;;;;;;22.28;52.91;99947.25;5044037;28;20060;-77
2021/09/06 06:50:56;;;;;;;5.65;3.63;;;;;;;22.23;53.19;99916.28;5036711;28;20046;-77
2021/09/06 06:53:22;;;;;;;5.80;3.22;;;;;;;22.33;52.97;99938.44;5051141;28;20539;-78
2021/09/06 06:55:49;;;;;;;11.65;3.22;;;;;;;22.36;52.98;99942.53;5040494;28;20069;-78
2021/09/06 06:58:16;;;;;;;8.73;3.65;;;;;;;22.44;52.82;99939.47;5035072;28;20572;-77
2021/09/06 07:00:43;;;;;;;8.00;2.83;;;;;;;22.41;52.81;99947.94;5041070;28;20560;-76
2021/09/06 07:03:10;;;;;;;6.45;3.38;;;;;;;22.44;52.61;99952.88;5043860;28;20128;-65
2021/09/06 07:05:37;;;;;;;8.50;3.10;;;;;;;22.39;52.89;99936.94;5043315;28;20056;-76
2021/09/06 07:08:04;;;;;;;5.78;3.78;;;;;;;22.51;52.42;99947.31;5050181;28;20072;-75
2021/09/06 07:10:31;;;;;;;4.80;2.83;;;;;;;22.64;52.05;99953.66;5056739;28;20412;-76
2021/09/06 07:12:58;;;;;;;6.28;3.28;;;;;;;22.83;52.08;99967.84;5058285;28;20091;-75
2021/09/06 07:15:31;;;;;;;7.30;3.78;;;;;;;22.93;51.92;99969.28;5048947;28;20060;-75
2021/09/06 07:18:01;;;;;;;6.10;3.00;;;;;;;23.09;51.36;99954.94;5042464;28;20069;-75
2021/09/06 07:20:29;;;;;;;5.20;3.13;;;;;;;23.16;50.78;99963.59;5038393;28;20122;-75
2021/09/06 07:22:56;;;;;;;7.90;3.03;;;;;;;23.20;51.15;99975.06;5038948;28;20620;-75
2021/09/06 07:25:23;;;;;;;9.15;3.05;;;;;;;23.30;50.50;99969.53;5040006;28;20511;-82
2021/09/06 07:27:50;;;;;;;5.20;2.90;;;;;;;23.33;50.74;99970.81;5040410;28;20446;-81
2021/09/06 07:30:16;;;;;;;7.65;3.20;;;;;;;23.35;50.38;99960.69;5044767;28;20124;-76
2021/09/06 07:32:44;;;;;;;6.97;4.18;;;;;;;23.51;50.48;99966.22;5043718;28;20103;-77
2021/09/06 07:35:12;;;;;;;10.45;3.83;;;;;;;23.79;49.91;99965.88;5049401;28;20049;-79
2021/09/06 07:37:40;;;;;;;5.15;2.60;;;;;;;23.99;48.99;99971.44;5041605;28;20136;-78
2021/09/06 07:40:11;;;;;;;6.35;3.85;;;;;;;24.15;48.84;99979.84;5039861;28;20200;-78
2021/09/06 07:42:38;;;;;;;10.63;3.20;;;;;;;24.26;48.13;99970.19;5054604;28;20072;-78
2021/09/06 07:45:08;;;;;;;7.90;3.83;;;;;;;24.27;48.40;99971.84;5053139;28;20073;-79
2021/09/06 07:47:36;;;;;;;7.32;3.92;;;;;;;24.34;47.85;99989.06;5040620;28;20041;-77
2021/09/06 07:50:04;;;;;;;11.38;4.35;;;;;;;24.43;47.87;99979.41;5035515;28;20049;-79
2021/09/06 07:52:33;;;;;;;;;;;;;;;24.43;47.83;99980.22;5055439;28;20130;-79
2021/09/06 07:55:00;;;;;;;8.73;3.50;;;;;;;24.80;46.92;99994.53;5043691;28;20011;-78
2021/09/06 07:57:28;;;;;;;11.50;3.03;;;;;;;25.06;46.40;99993.59;5035544;28;20037;-77
2021/09/06 07:59:55;;;;;;;7.55;2.95;;;;;;;25.37;45.65;99997.19;5048164;28;20153;-77
2021/09/06 08:02:22;;;;;;;5.65;3.55;;;;;;;25.69;45.29;99993.75;5036691;28;20067;-77
2021/09/06 08:04:49;;;;;;;7.95;3.83;;;;;;;25.79;44.72;100015.09;5051251;28;20132;-77
2021/09/06 08:07:16;;;;;;;10.90;3.22;;;;;;;25.79;44.71;100018.75;5036660;28;20046;-75
2021/09/06 08:09:43;;;;;;;7.63;3.95;;;;;;;25.96;44.80;100018.09;5044062;28;20543;-76
2021/09/06 08:12:10;;;;;;;6.20;3.72;;;;;;;26.24;44.70;100014.59;5034321;28;20133;-79
2021/09/06 08:14:38;;;;;;;11.23;4.25;;;;;;;26.75;43.59;100032.03;5046270;28;20124;-76
2021/09/06 08:17:06;;;;;;;6.23;4.47;;;;;;;27.14;43.26;100007.19;5045929;28;20378;-76
2021/09/06 08:19:33;;;;;;;8.98;3.75;;;;;;;27.45;42.71;100001.91;5039659;28;20072;-77
2021/09/06 08:22:00;;;;;;;12.35;4.55;;;;;;;27.45;43.35;100024.84;5042106;28;20037;-75
2021/09/06 08:24:26;;;;;;;11.75;4.70;;;;;;;27.08;43.58;100011.69;5042240;28;20383;-78
2021/09/06 08:26:53;;;;;;;15.73;4.97;;;;;;;27.07;44.34;100020.66;5044050;28;20123;-78
2021/09/06 08:29:20;;;;;;;10.32;4.00;;;;;;;26.86;44.53;100038.63;5038605;28;20054;-77
2021/09/06 08:31:47;;;;;;;7.82;3.72;;;;;;;26.70;45.19;100042.66;5036923;28;20080;-75
2021/09/06 08:34:14;;;;;;;9.52;4.10;;;;;;;26.82;45.08;100046.38;5035219;28;20045;-76
2021/09/06 08:36:41;;;;;;;6.53;3.72;;;;;;;27.04;44.55;100030.88;5049638;28;20144;-76
2021/09/06 08:39:08;;;;;;;7.78;3.47;;;;;;;27.46;43.72;100048.63;5043501;28;20069;-75
2021/09/06 08:41:35;;;;;;;7.20;3.25;;;;;;;27.76;43.25;100028.16;5037199;28;20064;-76
2021/09/06 08:44:03;;;;;;;11.75;4.05;;;;;;;28.16;42.60;100040.44;5041579;28;20540;-76
2021/09/06 08:46:30;;;;;;;6.40;2.72;;;;;;;28.55;41.99;100038.31;5042323;28;20076;-76
2021/09/06 08:48:57;;;;;;;4.85;2.97;;;;;;;29.01;41.39;100043.03;5052083;28;20441;-76
2021/09/06 08:51:24;;;;;;;5.22;2.92;;;;;;;29.51;40.30;100031.22;5040746;28;20128;-75
2021/09/06 08:53:51;;;;;;;6.65;3.55;;;;;;;29.90;39.41;100038.72;5047006;28;20048;-75
2021/09/06 08:56:21;;;;;;;5.03;2.58;;;;;;;30.10;38.73;100017.97;5045782;28;20558;-77
2021/09/06 08:58:58;;;;;;;7.22;2.88;;;;;;;30.14;37.98;100056.19;5040180;28;20041;-75
2021/09/06 09:01:36;;;;;;;6.18;2.70;;;;;;;29.52;38.90;100041.47;5030773;28;20104;-74
2021/09/06 09:04:15;;;;;;;5.22;2.55;;;;;;;28.92;39.15;100038.94;5040859;28;20053;-76
2021/09/06 09:06:42;;;;;;;3.65;2.50;;;;;;;28.55;39.94;100040.38;5034719;28;20055;-68
2021/09/06 09:09:09;;;;;;;7.13;2.72;;;;;;;28.21;40.03;100048.63;5043810;28;20127;-74
2021/09/06 09:11:39;;;;;;;5.82;2.30;;;;;;;28.08;40.58;100057.66;5038996;28;20060;-63
2021/09/06 09:14:11;;;;;;;8.95;2.70;;;;;;;28.14;40.35;100048.63;5044185;28;20072;-66
2021/09/06 09:16:38;;;;;;;8.93;3.30;;;;;;;28.13;40.60;100052.72;5044286;28;20037;-65
2021/09/06 09:19:07;;;;;;;4.70;3.03;;;;;;;28.37;39.93;100034.63;5040782;28;20128;-69
2021/09/06 09:21:34;;;;;;;4.43;2.50;;;;;;;29.03;39.37;100040.56;5031858;28;20095;-71
2021/09/06 09:24:01;;;;;;;6.88;2.40;;;;;;;29.72;38.51;100061.91;5032206;28;20045;-64
2021/09/06 09:26:28;;;;;;;6.10;2.60;;;;;;;29.72;38.10;100061.91;5035890;28;20548;-63
2021/09/06 09:28:55;;;;;;;3.35;2.08;;;;;;;29.81;38.50;100061.41;5034880;28;20136;-64
2021/09/06 09:31:22;;;;;;;5.18;2.50;;;;;;;29.50;38.27;100061.25;5046425;28;20091;-62
2021/09/06 09:33:56;;;;;;;7.25;2.63;;;;;;;29.19;38.92;100062.25;5045597;28;20080;-67
2021/09/06 09:36:31;;;;;;;5.90;2.92;;;;;;;29.56;38.68;100049.25;5039737;28;20496;-62
2021/09/06 09:39:24;;;;;;;9.75;3.63;;;;;;;30.14;38.62;100059.06;5037200;28;20548;-65
2021/09/06 09:42:01;;;;;;;6.68;3.13;;;;;;;30.88;36.70;100057.47;5044918;28;20136;-69
2021/09/06 09:44:29;;;;;;;7.15;3.00;;;;;;;31.12;36.20;100054.66;5038240;28;20059;-63
2021/09/06 09:47:04;;;;;;;3.55;2.30;;;;;;;31.45;35.92;100049.25;5045731;28;20135;-63
2021/09/06 09:49:33;;;;;;;8.00;2.78;;;;;;;31.95;35.59;100045.59;5034704;28;20051;-64
2021/09/06 09:52:00;;;;;;;8.32;2.90;;;;;;;32.13;34.30;100043.19;5043625;28;20128;-72
2021/09/06 09:54:27;;;;;;;4.93;2.30;;;;;;;32.22;34.29;100040.53;5033918;28;20132;-71
2021/09/06 09:56:55;;;;;;;7.22;3.05;;;;;;;32.34;34.24;100056.41;5040953;28;20136;-67
2021/09/06 09:59:22;;;;;;;8.90;3.17;;;;;;;32.15;33.86;100052.22;5037856;28;20064;-67
2021/09/06 10:01:56;;;;;;;7.22;2.85;;;;;;;32.17;33.50;100038.19;5037675;28;20132;-66
2021/09/06 10:04:28;;;;;;;6.15;2.33;;;;;;;31.81;33.96;100050.31;5036694;28;20059;-72
2021/09/06 10:06:57;;;;;;;4.35;2.70;;;;;;;31.44;34.41;100062.88;5040649;28;20508;-70
2021/09/06 10:09:24;;;;;;;10.30;2.90;;;;;;;31.12;34.74;100061.25;5049925;28;20114;-71
2021/09/06 10:11:51;;;;;;;8.00;2.85;;;;;;;30.98;35.05;100061.44;5044716;28;20408;-67
2021/09/06 10:14:19;;;;;;;7.72;3.00;;;;;;;30.87;35.32;100072.28;5042879;28;20076;-66
2021/09/06 10:17:02;;;;;;;8.05;2.92;;;;;;;30.55;35.73;100064.00;5038240;28;20048;-67
2021/09/06 10:19:39;;;;;;;4.90;2.22;;;;;;;30.17;36.37;100064.78;5032189;28;20099;-63
2021/09/06 10:22:06;;;;;;;9.70;4.03;;;;;;;29.97;37.09;100081.03;5033291;28;20072;-79
2021/09/06 10:24:33;;;;;;;7.10;3.05;;;;;;;29.92;37.85;100087.25;5037479;28;20083;-78
2021/09/06 10:27:06;;;;;;;6.70;3.28;;;;;;;29.80;38.06;100091.44;5039611;28;20077;-81
2021/09/06 10:29:33;;;;;;;5.50;3.42;;;;;;;29.82;38.64;100103.38;5035893;28;20049;-78
2021/09/06 10:32:04;;;;;;;9.02;3.40;;;;;;;29.66;39.27;100085.81;5040405;28;20136;-79
2021/09/06 10:34:31;;;;;;;13.18;3.00;;;;;;;30.13;39.39;100094.88;5041779;28;20501;-79
2021/09/06 10:37:01;;;;;;;8.52;3.33;;;;;;;30.18;38.71;100080.03;5034366;28;20049;-78
2021/09/06 10:39:28;;;;;;;5.85;3.00;;;;;;;30.06;39.24;100089.19;5036177;28;20042;-79
2021/09/06 10:42:04;;;;;;;9.35;2.90;;;;;;;30.01;39.42;100095.38;5037416;28;20132;-78
2021/09/06 10:44:37;;;;;;;5.15;2.30;;;;;;;29.80;39.94;100085.69;5047475;28;20072;-78
2021/09/06 10:47:10;;;;;;;7.88;2.92;;;;;;;29.58;39.81;100075.56;5038034;28;20132;-80
2021/09/06 10:49:46;;;;;;;8.32;2.67;;;;;;;29.21;40.47;100105.78;5040706;28;20046;-80
2021/09/06 10:52:14;;;;;;;8.43;3.13;;;;;;;28.94;41.20;100096.84;5049086;28;20041;-80
2021/09/06 10:54:41;;;;;;;5.73;2.80;;;;;;;29.21;41.41;100088.53;5044295;28;20472;-79
2021/09/06 10:57:12;;;;;;;5.70;2.63;;;;;;;30.15;40.17;100116.22;5035792;28;20338;-80
2021/09/06 10:59:43;;;;;;;5.60;2.90;;;;;;;30.57;39.55;100101.88;5051326;28;20143;-80
2021/09/06 11:02:10;;;;;;;10.77;2.92;;;;;;;30.51;40.14;100107.28;5038770;28;20053;-77
2021/09/06 11:04:39;;;;;;;4.40;3.17;;;;;;;30.89;39.32;100110.97;5040673;28;20504;-79
2021/09/06 11:07:08;;;;;;;10.85;2.65;;;;;;;31.52;38.80;100107.69;5032898;28;20098;-76
2021/09/06 11:09:35;;;;;;;;;;;;;;;31.78;38.62;100117.59;5041615;28;20049;-75
2021/09/06 11:12:08;;;;;;;10.02;3.10;;;;;;;32.12;38.22;100122.44;5042173;28;20007;-76
2021/09/06 11:14:40;;;;;;;4.80;2.85;;;;;;;32.04;38.12;100103.59;5049336;28;20123;-76
2021/09/06 11:17:24;;;;;;;4.00;2.63;;;;;;;31.88;38.06;100110.03;5041354;28;20045;-80
2021/09/06 11:19:55;;;;;;;5.18;3.03;;;;;;;32.08;38.30;100098.56;5037926;28;20037;-77
2021/09/06 11:22:23;;;;;;;9.82;3.55;;;;;;;32.19;37.66;100122.31;5036053;28;20053;-75
2021/09/06 11:24:59;;;;;;;5.97;3.63;;;;;;;32.00;37.57;100123.03;5046594;28;20372;-76
2021/09/06 11:27:34;;;;;;;5.85;3.13;;;;;;;31.72;38.62;100115.63;5036950;28;20073;-75
2021/09/06 11:30:04;;;;;;;7.30;2.80;;;;;;;31.61;37.86;100110.84;5043509;28;20041;-76
2021/09/06 11:32:31;;;;;;;7.78;2.70;;;;;;;31.40;38.64;100108.28;5037619;28;20136;-76